F/V Papi Paul — FVFG — position and weather

sailwx.info

Track history (hours):
 
Tides and Currents Weather Stations Pressure Air Temp Water Temp Dewpoint Dewpoint Depression Visibility Wind Speed Wind Dir Waves Ship Positions

F/V Papi Paul

Last reported at 2017-Nov-20 00:30 UTC. Time now 2017-Nov-20 00:34 UTC.
Position N 47°21' W 002°31'.

Length 18 m.

Type: Fishing. MMSI: 228364000.

Date/timePositionNaut miles runAvg speedWind from/ knotsBaromVisibWave heightAir tempDewpointWater temp
2017-Nov-20 00:30N 47°21' W 002°31'0 0.0
2017-Nov-20 00:00N 47°21' W 002°31'0 0.0
2017-Nov-19 23:30N 47°21' W 002°31'0 0.0
2017-Nov-19 23:00N 47°21' W 002°31'0 0.0
2017-Nov-19 22:30N 47°21' W 002°31'0 0.0
2017-Nov-19 22:00N 47°21' W 002°31'0 0.0
2017-Nov-19 21:30N 47°21' W 002°31'0 0.0
2017-Nov-19 21:00N 47°21' W 002°31'0 0.0
2017-Nov-19 20:30N 47°21' W 002°31'0 0.0
2017-Nov-19 20:00N 47°21' W 002°31'0 0.0
2017-Nov-19 19:30N 47°21' W 002°31'0 0.0
2017-Nov-19 19:00N 47°21' W 002°31'3 5.7
2017-Nov-19 18:30N 47°19' W 002°34'5 9.2
2017-Nov-19 18:00N 47°14' W 002°36'5 9.1
2017-Nov-19 17:30N 47°10' W 002°39'17 2.8
2017-Nov-19 11:17N 47°01' W 003°00'4 0.6
2017-Nov-19 04:16N 47°04' W 003°04'1 3.0
2017-Nov-19 03:52N 47°03' W 003°03'1 3.2
2017-Nov-19 03:26N 47°02' W 003°03'2 3.1
2017-Nov-19 02:54N 47°00' W 003°02'2 3.1
2017-Nov-19 02:24N 46°59' W 003°01'1 2.7
2017-Nov-19 01:57N 46°58' W 002°60'3 1.5
2017-Nov-19 00:06N 46°59' W 002°56'1 3.4
2017-Nov-18 23:48N 46°58' W 002°55'2 3.3
2017-Nov-18 23:19N 46°57' W 002°57'1 3.3
2017-Nov-18 22:56N 46°58' W 002°59'2 2.4
2017-Nov-18 22:07N 46°59' W 003°01'0 3.2
2017-Nov-18 22:00N 46°59' W 003°01'3 3.2
2017-Nov-18 21:06N 47°02' W 003°02'1 3.1
2017-Nov-18 20:45N 47°02' W 003°01'1 3.4
2017-Nov-18 20:24N 47°00' W 003°00'1 3.4
2017-Nov-18 20:00N 46°59' W 002°59'1 2.2
2017-Nov-18 19:29N 46°59' W 003°01'3 2.7
2017-Nov-18 18:16N 47°02' W 003°03'1 2.1
2017-Nov-18 17:57N 47°03' W 003°02'2 3.5
2017-Nov-18 17:28N 47°01' W 003°00'3 3.4
2017-Nov-18 16:41N 46°59' W 002°59'1 2.9
2017-Nov-18 16:25N 46°58' W 002°60'2 3.5
2017-Nov-18 15:48N 47°00' W 003°02'1 2.5
2017-Nov-18 15:29N 47°01' W 003°02'1 2.5
2017-Nov-18 15:00N 47°02' W 003°03'1 2.2
2017-Nov-18 14:27N 47°03' W 003°02'2 3.2
2017-Nov-18 13:57N 47°02' W 003°01'4 3.1
2017-Nov-18 12:33N 46°59' W 002°56'0 3.4
2017-Nov-18 12:29N 46°59' W 002°56'1 1.9
2017-Nov-18 11:53N 46°58' W 002°55'1 3.1
2017-Nov-18 11:30N 46°57' W 002°57'2 3.2
2017-Nov-18 10:53N 46°58' W 002°60'2 3.3
2017-Nov-18 10:23N 46°59' W 003°01'2 3.2
2017-Nov-18 09:48N 47°01' W 003°02'1 3.4
2017-Nov-18 09:30N 47°02' W 003°02'2 3.3
2017-Nov-18 08:56N 47°04' W 003°04'0 1.0
2017-Nov-18 08:30N 47°04' W 003°04'2 3.4
2017-Nov-18 07:50N 47°02' W 003°03'4 2.8
2017-Nov-18 06:32N 46°60' W 002°58'2 3.8
2017-Nov-18 06:02N 47°01' W 002°56'2 3.8
2017-Nov-18 05:30N 47°02' W 002°54'6 9.0
2017-Nov-18 04:48N 47°07' W 002°47'310.0
2017-Nov-18 04:28N 47°09' W 002°44'10 9.9
2017-Nov-18 03:27N 47°17' W 002°36'4 9.6
2017-Nov-18 03:00N 47°21' W 002°31'0 0.7
2017-Nov-18 02:26N 47°21' W 002°31'0 0.0
2017-Nov-18 01:56N 47°21' W 002°31'0 0.0
2017-Nov-17 10:03N 47°21' W 002°31'0 0.0
2017-Nov-17 09:44N 47°21' W 002°31'0 0.0
2017-Nov-17 04:52N 47°21' W 002°31'0 0.0
2017-Nov-17 03:12N 47°21' W 002°31'0 0.0
2017-Nov-17 02:51N 47°21' W 002°31'0 0.0
2017-Nov-17 02:27N 47°21' W 002°31'0 0.0
2017-Nov-17 01:47N 47°21' W 002°31'0 0.0
2017-Nov-17 01:25N 47°21' W 002°31'0 0.0
2017-Nov-17 00:55N 47°21' W 002°31'0 0.0
2017-Nov-17 00:30N 47°21' W 002°31'0 0.0
2017-Nov-16 23:50N 47°21' W 002°31'0 0.0
2017-Nov-16 22:53N 47°21' W 002°31'0 0.0
2017-Nov-16 22:25N 47°21' W 002°31'0 0.0
2017-Nov-16 21:55N 47°21' W 002°31'0 0.0
2017-Nov-16 20:15N 47°21' W 002°31'0 0.0
2017-Nov-16 19:55N 47°21' W 002°31'0 0.0
2017-Nov-16 19:30N 47°21' W 002°31'0 0.0
2017-Nov-16 18:29N 47°21' W 002°31'4 8.9
2017-Nov-16 18:01N 47°18' W 002°35'5 9.8
2017-Nov-16 17:31N 47°14' W 002°39'611.5
2017-Nov-16 17:00N 47°10' W 002°45'5 9.8
2017-Nov-16 16:30N 47°06' W 002°50'4 8.6
2017-Nov-16 16:00N 47°03' W 002°54'4 7.9
2017-Nov-16 15:30N 46°60' W 002°58'1 2.1
2017-Nov-16 14:59N 46°59' W 002°57'1 3.0
2017-Nov-16 14:30N 46°58' W 002°55'1 2.5
2017-Nov-16 14:00N 46°57' W 002°57'2 3.3
2017-Nov-16 13:30N 46°57' W 002°59'2 3.3
2017-Nov-16 13:00N 46°59' W 003°00'1 2.8
2017-Nov-16 12:31N 46°60' W 002°59'1 3.0
2017-Nov-16 12:01N 46°60' W 002°57'1 2.1
2017-Nov-16 11:30N 46°59' W 002°56'1 2.9
2017-Nov-16 11:00N 46°58' W 002°55'2 3.2
2017-Nov-16 10:24N 46°58' W 002°58'1 3.2
2017-Nov-16 09:57N 46°59' W 002°60'1 2.4
2017-Nov-16 09:30N 47°00' W 002°59'2 3.1
2017-Nov-16 08:59N 46°60' W 002°57'2 3.1
2017-Nov-16 08:30N 46°59' W 002°55'1 1.0
2017-Nov-16 07:58N 46°59' W 002°56'2 3.1
2017-Nov-16 07:26N 46°60' W 002°58'1 2.7
2017-Nov-16 06:58N 47°00' W 002°60'1 2.8
2017-Nov-16 06:28N 46°59' W 003°00'1 3.1
2017-Nov-16 06:01N 46°58' W 002°59'2 3.3
2017-Nov-16 05:30N 46°57' W 002°57'2 3.1
2017-Nov-16 05:00N 46°57' W 002°55'2 2.4
2017-Nov-16 04:14N 46°57' W 002°57'1 3.1
2017-Nov-16 03:56N 46°57' W 002°59'2 3.1
2017-Nov-16 03:23N 46°59' W 003°00'2 2.8
2017-Nov-16 02:49N 47°00' W 002°59'1 3.3
2017-Nov-16 02:30N 47°00' W 002°58'2 3.2
2017-Nov-16 02:01N 46°59' W 002°56'1 2.7
2017-Nov-16 01:30N 46°58' W 002°55'1 2.3
2017-Nov-16 00:59N 46°60' W 002°54'2 3.2
2017-Nov-16 00:30N 47°01' W 002°53'1 2.9
2017-Nov-16 00:00N 47°02' W 002°52'2 3.2
2017-Nov-15 23:29N 47°04' W 002°53'2 3.2
2017-Nov-15 23:00N 47°05' W 002°55'2 3.2
2017-Nov-15 22:30N 47°06' W 002°56'1 1.8
2017-Nov-15 22:01N 47°07' W 002°57'1 2.8
2017-Nov-15 21:31N 47°05' W 002°57'2 3.3
2017-Nov-15 20:59N 47°04' W 002°55'2 3.3
2017-Nov-15 20:30N 47°03' W 002°53'2 3.4
2017-Nov-15 20:01N 47°02' W 002°52'2 3.1
2017-Nov-15 19:30N 47°00' W 002°52'2 2.9
2017-Nov-15 18:52N 47°01' W 002°54'0 1.2
2017-Nov-15 18:29N 47°00' W 002°54'2 2.7
2017-Nov-15 17:54N 47°00' W 002°51'1 3.2
2017-Nov-15 17:30N 47°02' W 002°52'2 3.1
2017-Nov-15 17:00N 47°03' W 002°53'1 3.0
2017-Nov-15 16:30N 47°04' W 002°55'2 3.0
2017-Nov-15 15:56N 47°04' W 002°57'1 2.6
2017-Nov-15 15:28N 47°03' W 002°57'1 1.9
2017-Nov-15 14:57N 47°02' W 002°56'1 2.7
2017-Nov-15 14:30N 47°01' W 002°55'2 1.6
2017-Nov-15 13:14N 47°03' W 002°53'3 3.1
2017-Nov-15 12:14N 47°05' W 002°56'1 2.3
2017-Nov-15 11:45N 47°06' W 002°57'1 3.3
2017-Nov-15 11:23N 47°07' W 002°58'1 3.1
2017-Nov-15 11:00N 47°07' W 002°60'2 3.2
2017-Nov-15 10:26N 47°05' W 002°59'1 3.2
2017-Nov-15 10:00N 47°04' W 002°58'2 3.3
2017-Nov-15 09:31N 47°03' W 002°57'2 3.2
2017-Nov-15 09:00N 47°02' W 002°59'1 2.4
2017-Nov-15 08:31N 47°02' W 003°01'1 2.5
2017-Nov-15 08:01N 47°03' W 003°01'2 3.0
2017-Nov-15 07:27N 47°04' W 003°02'1 3.0
2017-Nov-15 07:00N 47°06' W 003°03'2 2.6
2017-Nov-15 06:07N 47°08' W 003°02'1 3.3
2017-Nov-15 05:49N 47°08' W 003°00'1 3.4
2017-Nov-15 05:29N 47°09' W 002°59'4 7.1
2017-Nov-15 05:00N 47°10' W 002°54'510.1
2017-Nov-15 04:30N 47°13' W 002°48'510.0
2017-Nov-15 04:00N 47°16' W 002°43'510.2
2017-Nov-15 03:30N 47°19' W 002°37'4 8.1
2017-Nov-15 02:59N 47°21' W 002°31'0 0.0
2017-Nov-15 02:30N 47°21' W 002°31'0 0.0
2017-Nov-15 02:00N 47°21' W 002°31'0 0.0
2017-Nov-15 01:30N 47°21' W 002°31'0 0.0
2017-Nov-15 01:00N 47°21' W 002°31'0 0.0
2017-Nov-15 00:30N 47°21' W 002°31'0 0.0
2017-Nov-15 00:00N 47°21' W 002°31'0 0.0
2017-Nov-14 23:30N 47°21' W 002°31'0 0.0
2017-Nov-14 23:00N 47°21' W 002°31'0 0.0
2017-Nov-14 22:31N 47°21' W 002°31'0 0.0
2017-Nov-14 22:00N 47°21' W 002°31'0 0.0
2017-Nov-14 21:30N 47°21' W 002°31'0 0.0
2017-Nov-14 21:00N 47°21' W 002°31'0 0.0
2017-Nov-14 20:30N 47°21' W 002°31'0 0.0
2017-Nov-14 20:00N 47°21' W 002°31'0 0.0
2017-Nov-14 19:29N 47°21' W 002°31'0 0.0
2017-Nov-14 18:59N 47°21' W 002°31'4 8.9
2017-Nov-14 18:30N 47°19' W 002°37'5 9.8
2017-Nov-14 18:00N 47°16' W 002°43'5 9.7
2017-Nov-14 17:30N 47°13' W 002°48'10 9.8
2017-Nov-14 16:31N 47°07' W 002°59'2 9.3
2017-Nov-14 16:18N 47°06' W 003°01'3 0.8
2017-Nov-14 12:35N 47°08' W 003°03'8 3.0
2017-Nov-14 09:54N 47°00' W 002°60'1 0.2
2017-Nov-14 06:25N 47°00' W 002°59'4 2.8
2017-Nov-14 05:02N 46°58' W 002°54'0 3.2
2017-Nov-14 04:59N 46°58' W 002°54'4 2.2
2017-Nov-14 03:14N 46°59' W 002°60'1 3.2
2017-Nov-14 02:56N 47°00' W 003°00'2 1.1
2017-Nov-14 01:25N 47°01' W 003°02'2 3.3
2017-Nov-14 00:42N 47°03' W 003°03'4 2.9
2017-Nov-13 23:16N 47°08' W 003°04'1 3.0
2017-Nov-13 22:57N 47°07' W 003°03'1 2.1
2017-Nov-13 22:24N 47°06' W 003°03'26 1.3
2017-Nov-13 02:00N 47°21' W 002°31'0 0.0
2017-Nov-13 01:30N 47°21' W 002°31'0 0.0
2017-Nov-13 00:59N 47°21' W 002°31'0 0.0
2017-Nov-13 00:30N 47°21' W 002°31'0 0.0
2017-Nov-13 00:00N 47°21' W 002°31'0 0.0
2017-Nov-12 23:30N 47°21' W 002°31'0 0.0
2017-Nov-12 23:00N 47°21' W 002°31'0 0.0
2017-Nov-12 22:30N 47°21' W 002°31'0 0.0
2017-Nov-12 22:00N 47°21' W 002°31'0 0.0
2017-Nov-12 21:30N 47°21' W 002°31'0 0.0
2017-Nov-12 21:00N 47°21' W 002°31'0 0.0
2017-Nov-12 20:29N 47°21' W 002°31'0 0.0
2017-Nov-12 20:01N 47°21' W 002°31'0 0.0
2017-Nov-12 19:30N 47°21' W 002°31'0 0.0
2017-Nov-12 19:00N 47°21' W 002°31'4 7.6
2017-Nov-12 18:30N 47°18' W 002°34'5 9.6
2017-Nov-12 18:00N 47°14' W 002°39'17 0.7
2017-Nov-11 18:34N 47°09' W 003°03'0 3.4
2017-Nov-11 18:30N 47°09' W 003°04'3 1.0
2017-Nov-11 15:45N 47°11' W 003°00'1 2.9
2017-Nov-11 15:27N 47°10' W 003°01'1 3.0
2017-Nov-11 15:00N 47°09' W 003°03'1 2.6
2017-Nov-11 14:27N 47°08' W 003°03'1 2.7
2017-Nov-11 14:00N 47°07' W 003°03'8 1.6
2017-Nov-11 09:01N 47°11' W 002°53'0 1.3
2017-Nov-11 08:52N 47°11' W 002°53'14 3.3
2017-Nov-11 04:33N 47°18' W 002°35'1 9.2
2017-Nov-11 04:27N 47°19' W 002°34'3 7.1
2017-Nov-11 04:00N 47°21' W 002°31'0 0.0
2017-Nov-10 10:24N 47°21' W 002°31'0 0.0
2017-Nov-10 09:58N 47°21' W 002°31'0 0.0
2017-Nov-10 09:30N 47°21' W 002°31'0 0.0
2017-Nov-10 08:59N 47°21' W 002°31'0 0.0
2017-Nov-10 08:30N 47°21' W 002°31'0 0.0
2017-Nov-10 07:59N 47°21' W 002°31'0 0.0
2017-Nov-10 07:29N 47°21' W 002°31'0 0.0
2017-Nov-10 06:55N 47°21' W 002°31'0 0.0
2017-Nov-10 06:30N 47°21' W 002°31'0 0.0
2017-Nov-10 05:59N 47°21' W 002°31'0 0.0
2017-Nov-10 05:29N 47°21' W 002°31'0 0.0
2017-Nov-10 05:00N 47°21' W 002°31'0 0.0
2017-Nov-10 04:30N 47°21' W 002°31'0 0.0
2017-Nov-10 04:00N 47°21' W 002°31'0 0.0
2017-Nov-10 03:31N 47°21' W 002°31'0 0.0
2017-Nov-10 02:31N 47°21' W 002°31'0 0.0
2017-Nov-10 02:28N 47°21' W 002°31'0 0.0
2017-Nov-10 02:00N 47°21' W 002°31'0 0.0
2017-Nov-10 01:30N 47°21' W 002°31'0 0.0
2017-Nov-10 00:58N 47°21' W 002°31'0 0.0
2017-Nov-10 00:30N 47°21' W 002°31'  
Track history (hours):
 
Tides and Currents Weather Stations Pressure Air Temp Water Temp Dewpoint Dewpoint Depression Visibility Wind Speed Wind Dir Waves Ship Positions

F/V Papi Paul

Last reported at 2017-Nov-20 00:30 UTC. Time now 2017-Nov-20 00:34 UTC.
Position N 47°21' W 002°31'.

Length 18 m.

Type: Fishing. MMSI: 228364000.

Date/timePositionNaut miles runAvg speedWind from/ knotsBaromVisibWave heightAir tempDewpointWater temp
2017-Nov-20 00:30N 47°21' W 002°31'0 0.0
2017-Nov-20 00:00N 47°21' W 002°31'0 0.0
2017-Nov-19 23:30N 47°21' W 002°31'0 0.0
2017-Nov-19 23:00N 47°21' W 002°31'0 0.0
2017-Nov-19 22:30N 47°21' W 002°31'0 0.0
2017-Nov-19 22:00N 47°21' W 002°31'0 0.0
2017-Nov-19 21:30N 47°21' W 002°31'0 0.0
2017-Nov-19 21:00N 47°21' W 002°31'0 0.0
2017-Nov-19 20:30N 47°21' W 002°31'0 0.0
2017-Nov-19 20:00N 47°21' W 002°31'0 0.0
2017-Nov-19 19:30N 47°21' W 002°31'0 0.0
2017-Nov-19 19:00N 47°21' W 002°31'3 5.7
2017-Nov-19 18:30N 47°19' W 002°34'5 9.2
2017-Nov-19 18:00N 47°14' W 002°36'5 9.1
2017-Nov-19 17:30N 47°10' W 002°39'17 2.8
2017-Nov-19 11:17N 47°01' W 003°00'4 0.6
2017-Nov-19 04:16N 47°04' W 003°04'1 3.0
2017-Nov-19 03:52N 47°03' W 003°03'1 3.2
2017-Nov-19 03:26N 47°02' W 003°03'2 3.1
2017-Nov-19 02:54N 47°00' W 003°02'2 3.1
2017-Nov-19 02:24N 46°59' W 003°01'1 2.7
2017-Nov-19 01:57N 46°58' W 002°60'3 1.5
2017-Nov-19 00:06N 46°59' W 002°56'1 3.4
2017-Nov-18 23:48N 46°58' W 002°55'2 3.3
2017-Nov-18 23:19N 46°57' W 002°57'1 3.3
2017-Nov-18 22:56N 46°58' W 002°59'2 2.4
2017-Nov-18 22:07N 46°59' W 003°01'0 3.2
2017-Nov-18 22:00N 46°59' W 003°01'3 3.2
2017-Nov-18 21:06N 47°02' W 003°02'1 3.1
2017-Nov-18 20:45N 47°02' W 003°01'1 3.4
2017-Nov-18 20:24N 47°00' W 003°00'1 3.4
2017-Nov-18 20:00N 46°59' W 002°59'1 2.2
2017-Nov-18 19:29N 46°59' W 003°01'3 2.7
2017-Nov-18 18:16N 47°02' W 003°03'1 2.1
2017-Nov-18 17:57N 47°03' W 003°02'2 3.5
2017-Nov-18 17:28N 47°01' W 003°00'3 3.4
2017-Nov-18 16:41N 46°59' W 002°59'1 2.9
2017-Nov-18 16:25N 46°58' W 002°60'2 3.5
2017-Nov-18 15:48N 47°00' W 003°02'1 2.5
2017-Nov-18 15:29N 47°01' W 003°02'1 2.5
2017-Nov-18 15:00N 47°02' W 003°03'1 2.2
2017-Nov-18 14:27N 47°03' W 003°02'2 3.2
2017-Nov-18 13:57N 47°02' W 003°01'4 3.1
2017-Nov-18 12:33N 46°59' W 002°56'0 3.4
2017-Nov-18 12:29N 46°59' W 002°56'1 1.9
2017-Nov-18 11:53N 46°58' W 002°55'1 3.1
2017-Nov-18 11:30N 46°57' W 002°57'2 3.2
2017-Nov-18 10:53N 46°58' W 002°60'2 3.3
2017-Nov-18 10:23N 46°59' W 003°01'2 3.2
2017-Nov-18 09:48N 47°01' W 003°02'1 3.4
2017-Nov-18 09:30N 47°02' W 003°02'2 3.3
2017-Nov-18 08:56N 47°04' W 003°04'0 1.0
2017-Nov-18 08:30N 47°04' W 003°04'2 3.4
2017-Nov-18 07:50N 47°02' W 003°03'4 2.8
2017-Nov-18 06:32N 46°60' W 002°58'2 3.8
2017-Nov-18 06:02N 47°01' W 002°56'2 3.8
2017-Nov-18 05:30N 47°02' W 002°54'6 9.0
2017-Nov-18 04:48N 47°07' W 002°47'310.0
2017-Nov-18 04:28N 47°09' W 002°44'10 9.9
2017-Nov-18 03:27N 47°17' W 002°36'4 9.6
2017-Nov-18 03:00N 47°21' W 002°31'0 0.7
2017-Nov-18 02:26N 47°21' W 002°31'0 0.0
2017-Nov-18 01:56N 47°21' W 002°31'0 0.0
2017-Nov-17 10:03N 47°21' W 002°31'0 0.0
2017-Nov-17 09:44N 47°21' W 002°31'0 0.0
2017-Nov-17 04:52N 47°21' W 002°31'0 0.0
2017-Nov-17 03:12N 47°21' W 002°31'0 0.0
2017-Nov-17 02:51N 47°21' W 002°31'0 0.0
2017-Nov-17 02:27N 47°21' W 002°31'0 0.0
2017-Nov-17 01:47N 47°21' W 002°31'0 0.0
2017-Nov-17 01:25N 47°21' W 002°31'0 0.0
2017-Nov-17 00:55N 47°21' W 002°31'0 0.0
2017-Nov-17 00:30N 47°21' W 002°31'0 0.0
2017-Nov-16 23:50N 47°21' W 002°31'0 0.0
2017-Nov-16 22:53N 47°21' W 002°31'0 0.0
2017-Nov-16 22:25N 47°21' W 002°31'0 0.0
2017-Nov-16 21:55N 47°21' W 002°31'0 0.0
2017-Nov-16 20:15N 47°21' W 002°31'0 0.0
2017-Nov-16 19:55N 47°21' W 002°31'0 0.0
2017-Nov-16 19:30N 47°21' W 002°31'0 0.0
2017-Nov-16 18:29N 47°21' W 002°31'4 8.9
2017-Nov-16 18:01N 47°18' W 002°35'5 9.8
2017-Nov-16 17:31N 47°14' W 002°39'611.5
2017-Nov-16 17:00N 47°10' W 002°45'5 9.8
2017-Nov-16 16:30N 47°06' W 002°50'4 8.6
2017-Nov-16 16:00N 47°03' W 002°54'4 7.9
2017-Nov-16 15:30N 46°60' W 002°58'1 2.1
2017-Nov-16 14:59N 46°59' W 002°57'1 3.0
2017-Nov-16 14:30N 46°58' W 002°55'1 2.5
2017-Nov-16 14:00N 46°57' W 002°57'2 3.3
2017-Nov-16 13:30N 46°57' W 002°59'2 3.3
2017-Nov-16 13:00N 46°59' W 003°00'1 2.8
2017-Nov-16 12:31N 46°60' W 002°59'1 3.0
2017-Nov-16 12:01N 46°60' W 002°57'1 2.1
2017-Nov-16 11:30N 46°59' W 002°56'1 2.9
2017-Nov-16 11:00N 46°58' W 002°55'2 3.2
2017-Nov-16 10:24N 46°58' W 002°58'1 3.2
2017-Nov-16 09:57N 46°59' W 002°60'1 2.4
2017-Nov-16 09:30N 47°00' W 002°59'2 3.1
2017-Nov-16 08:59N 46°60' W 002°57'2 3.1
2017-Nov-16 08:30N 46°59' W 002°55'1 1.0
2017-Nov-16 07:58N 46°59' W 002°56'2 3.1
2017-Nov-16 07:26N 46°60' W 002°58'1 2.7
2017-Nov-16 06:58N 47°00' W 002°60'1 2.8
2017-Nov-16 06:28N 46°59' W 003°00'1 3.1
2017-Nov-16 06:01N 46°58' W 002°59'2 3.3
2017-Nov-16 05:30N 46°57' W 002°57'2 3.1
2017-Nov-16 05:00N 46°57' W 002°55'2 2.4
2017-Nov-16 04:14N 46°57' W 002°57'1 3.1
2017-Nov-16 03:56N 46°57' W 002°59'2 3.1
2017-Nov-16 03:23N 46°59' W 003°00'2 2.8
2017-Nov-16 02:49N 47°00' W 002°59'1 3.3
2017-Nov-16 02:30N 47°00' W 002°58'2 3.2
2017-Nov-16 02:01N 46°59' W 002°56'1 2.7
2017-Nov-16 01:30N 46°58' W 002°55'1 2.3
2017-Nov-16 00:59N 46°60' W 002°54'2 3.2
2017-Nov-16 00:30N 47°01' W 002°53'1 2.9
2017-Nov-16 00:00N 47°02' W 002°52'2 3.2
2017-Nov-15 23:29N 47°04' W 002°53'2 3.2
2017-Nov-15 23:00N 47°05' W 002°55'2 3.2
2017-Nov-15 22:30N 47°06' W 002°56'1 1.8
2017-Nov-15 22:01N 47°07' W 002°57'1 2.8
2017-Nov-15 21:31N 47°05' W 002°57'2 3.3
2017-Nov-15 20:59N 47°04' W 002°55'2 3.3
2017-Nov-15 20:30N 47°03' W 002°53'2 3.4
2017-Nov-15 20:01N 47°02' W 002°52'2 3.1
2017-Nov-15 19:30N 47°00' W 002°52'2 2.9
2017-Nov-15 18:52N 47°01' W 002°54'0 1.2
2017-Nov-15 18:29N 47°00' W 002°54'2 2.7
2017-Nov-15 17:54N 47°00' W 002°51'1 3.2
2017-Nov-15 17:30N 47°02' W 002°52'2 3.1
2017-Nov-15 17:00N 47°03' W 002°53'1 3.0
2017-Nov-15 16:30N 47°04' W 002°55'2 3.0
2017-Nov-15 15:56N 47°04' W 002°57'1 2.6
2017-Nov-15 15:28N 47°03' W 002°57'1 1.9
2017-Nov-15 14:57N 47°02' W 002°56'1 2.7
2017-Nov-15 14:30N 47°01' W 002°55'2 1.6
2017-Nov-15 13:14N 47°03' W 002°53'3 3.1
2017-Nov-15 12:14N 47°05' W 002°56'1 2.3
2017-Nov-15 11:45N 47°06' W 002°57'1 3.3
2017-Nov-15 11:23N 47°07' W 002°58'1 3.1
2017-Nov-15 11:00N 47°07' W 002°60'2 3.2
2017-Nov-15 10:26N 47°05' W 002°59'1 3.2
2017-Nov-15 10:00N 47°04' W 002°58'2 3.3
2017-Nov-15 09:31N 47°03' W 002°57'2 3.2
2017-Nov-15 09:00N 47°02' W 002°59'1 2.4
2017-Nov-15 08:31N 47°02' W 003°01'1 2.5
2017-Nov-15 08:01N 47°03' W 003°01'2 3.0
2017-Nov-15 07:27N 47°04' W 003°02'1 3.0
2017-Nov-15 07:00N 47°06' W 003°03'2 2.6
2017-Nov-15 06:07N 47°08' W 003°02'1 3.3
2017-Nov-15 05:49N 47°08' W 003°00'1 3.4
2017-Nov-15 05:29N 47°09' W 002°59'4 7.1
2017-Nov-15 05:00N 47°10' W 002°54'510.1
2017-Nov-15 04:30N 47°13' W 002°48'510.0
2017-Nov-15 04:00N 47°16' W 002°43'510.2
2017-Nov-15 03:30N 47°19' W 002°37'4 8.1
2017-Nov-15 02:59N 47°21' W 002°31'0 0.0
2017-Nov-15 02:30N 47°21' W 002°31'0 0.0
2017-Nov-15 02:00N 47°21' W 002°31'0 0.0
2017-Nov-15 01:30N 47°21' W 002°31'0 0.0
2017-Nov-15 01:00N 47°21' W 002°31'0 0.0
2017-Nov-15 00:30N 47°21' W 002°31'0 0.0
2017-Nov-15 00:00N 47°21' W 002°31'0 0.0
2017-Nov-14 23:30N 47°21' W 002°31'0 0.0
2017-Nov-14 23:00N 47°21' W 002°31'0 0.0
2017-Nov-14 22:31N 47°21' W 002°31'0 0.0
2017-Nov-14 22:00N 47°21' W 002°31'0 0.0
2017-Nov-14 21:30N 47°21' W 002°31'0 0.0
2017-Nov-14 21:00N 47°21' W 002°31'0 0.0
2017-Nov-14 20:30N 47°21' W 002°31'0 0.0
2017-Nov-14 20:00N 47°21' W 002°31'0 0.0
2017-Nov-14 19:29N 47°21' W 002°31'0 0.0
2017-Nov-14 18:59N 47°21' W 002°31'4 8.9
2017-Nov-14 18:30N 47°19' W 002°37'5 9.8
2017-Nov-14 18:00N 47°16' W 002°43'5 9.7
2017-Nov-14 17:30N 47°13' W 002°48'10 9.8
2017-Nov-14 16:31N 47°07' W 002°59'2 9.3
2017-Nov-14 16:18N 47°06' W 003°01'3 0.8
2017-Nov-14 12:35N 47°08' W 003°03'8 3.0
2017-Nov-14 09:54N 47°00' W 002°60'1 0.2
2017-Nov-14 06:25N 47°00' W 002°59'4 2.8
2017-Nov-14 05:02N 46°58' W 002°54'0 3.2
2017-Nov-14 04:59N 46°58' W 002°54'4 2.2
2017-Nov-14 03:14N 46°59' W 002°60'1 3.2
2017-Nov-14 02:56N 47°00' W 003°00'2 1.1
2017-Nov-14 01:25N 47°01' W 003°02'2 3.3
2017-Nov-14 00:42N 47°03' W 003°03'4 2.9
2017-Nov-13 23:16N 47°08' W 003°04'1 3.0
2017-Nov-13 22:57N 47°07' W 003°03'1 2.1
2017-Nov-13 22:24N 47°06' W 003°03'26 1.3
2017-Nov-13 02:00N 47°21' W 002°31'0 0.0
2017-Nov-13 01:30N 47°21' W 002°31'0 0.0
2017-Nov-13 00:59N 47°21' W 002°31'0 0.0
2017-Nov-13 00:30N 47°21' W 002°31'0 0.0
2017-Nov-13 00:00N 47°21' W 002°31'0 0.0
2017-Nov-12 23:30N 47°21' W 002°31'0 0.0
2017-Nov-12 23:00N 47°21' W 002°31'0 0.0
2017-Nov-12 22:30N 47°21' W 002°31'0 0.0
2017-Nov-12 22:00N 47°21' W 002°31'0 0.0
2017-Nov-12 21:30N 47°21' W 002°31'0 0.0
2017-Nov-12 21:00N 47°21' W 002°31'0 0.0
2017-Nov-12 20:29N 47°21' W 002°31'0 0.0
2017-Nov-12 20:01N 47°21' W 002°31'0 0.0
2017-Nov-12 19:30N 47°21' W 002°31'0 0.0
2017-Nov-12 19:00N 47°21' W 002°31'4 7.6
2017-Nov-12 18:30N 47°18' W 002°34'5 9.6
2017-Nov-12 18:00N 47°14' W 002°39'17 0.7
2017-Nov-11 18:34N 47°09' W 003°03'0 3.4
2017-Nov-11 18:30N 47°09' W 003°04'3 1.0
2017-Nov-11 15:45N 47°11' W 003°00'1 2.9
2017-Nov-11 15:27N 47°10' W 003°01'1 3.0
2017-Nov-11 15:00N 47°09' W 003°03'1 2.6
2017-Nov-11 14:27N 47°08' W 003°03'1 2.7
2017-Nov-11 14:00N 47°07' W 003°03'8 1.6
2017-Nov-11 09:01N 47°11' W 002°53'0 1.3
2017-Nov-11 08:52N 47°11' W 002°53'14 3.3
2017-Nov-11 04:33N 47°18' W 002°35'1 9.2
2017-Nov-11 04:27N 47°19' W 002°34'3 7.1
2017-Nov-11 04:00N 47°21' W 002°31'0 0.0
2017-Nov-10 10:24N 47°21' W 002°31'0 0.0
2017-Nov-10 09:58N 47°21' W 002°31'0 0.0
2017-Nov-10 09:30N 47°21' W 002°31'0 0.0
2017-Nov-10 08:59N 47°21' W 002°31'0 0.0
2017-Nov-10 08:30N 47°21' W 002°31'0 0.0
2017-Nov-10 07:59N 47°21' W 002°31'0 0.0
2017-Nov-10 07:29N 47°21' W 002°31'0 0.0
2017-Nov-10 06:55N 47°21' W 002°31'0 0.0
2017-Nov-10 06:30N 47°21' W 002°31'0 0.0
2017-Nov-10 05:59N 47°21' W 002°31'0 0.0
2017-Nov-10 05:29N 47°21' W 002°31'0 0.0
2017-Nov-10 05:00N 47°21' W 002°31'0 0.0
2017-Nov-10 04:30N 47°21' W 002°31'0 0.0
2017-Nov-10 04:00N 47°21' W 002°31'0 0.0
2017-Nov-10 03:31N 47°21' W 002°31'0 0.0
2017-Nov-10 02:31N 47°21' W 002°31'0 0.0
2017-Nov-10 02:28N 47°21' W 002°31'0 0.0
2017-Nov-10 02:00N 47°21' W 002°31'0 0.0
2017-Nov-10 01:30N 47°21' W 002°31'0 0.0
2017-Nov-10 00:58N 47°21' W 002°31'0 0.0
2017-Nov-10 00:30N 47°21' W 002°31'  

Dump ship's entire track history